createdAt,value
2022-08-16T00:00:39.331Z,99152.34
2022-08-16T00:03:42.278Z,99161.97
2022-08-16T00:06:44.939Z,99158.75
2022-08-16T00:09:49.881Z,99164.72
2022-08-16T00:12:55.978Z,99168.75
2022-08-16T00:15:59.278Z,99166.59
2022-08-16T00:19:01.965Z,99163.91
2022-08-16T00:22:06.861Z,99167.59
2022-08-16T00:25:18.537Z,99165.88
2022-08-16T00:28:21.820Z,99164.06
2022-08-16T00:31:47.073Z,99161.06
2022-08-16T00:34:57.044Z,99163.78
2022-08-16T00:38:41.092Z,99164.81
2022-08-16T00:41:31.537Z,99163.44
2022-08-16T00:44:51.247Z,99166.09
2022-08-16T00:47:56.528Z,99165.66
2022-08-16T00:51:03.521Z,99156.41
2022-08-16T00:54:08.311Z,99160.84
2022-08-16T00:57:14.638Z,99165.41
2022-08-16T01:00:19.721Z,99164.50
2022-08-16T01:03:29.444Z,99164.88
2022-08-16T01:06:48.849Z,99164.56
2022-08-16T01:09:52.639Z,99169.25
2022-08-16T01:13:00.161Z,99170.97
2022-08-16T01:16:21.399Z,99167.69
2022-08-16T01:19:34.964Z,99177.25
2022-08-16T01:22:50.181Z,99178.44
2022-08-16T01:25:59.965Z,99184.41
2022-08-16T01:29:35.730Z,99187.94
2022-08-16T01:33:01.504Z,99187.50
2022-08-16T01:36:11.782Z,99188.22
2022-08-16T01:39:17.558Z,99180.25
2022-08-16T01:42:21.141Z,99185.34
2022-08-16T01:45:40.923Z,99180.53
2022-08-16T01:48:46.222Z,99190.38
2022-08-16T01:51:59.593Z,99187.13
2022-08-16T01:55:06.107Z,99179.38
2022-08-16T01:58:12.227Z,99179.31
2022-08-16T02:01:15.982Z,99181.16
2022-08-16T02:04:48.403Z,99182.25
2022-08-16T02:07:46.208Z,99179.06
2022-08-16T02:10:52.165Z,99170.25
2022-08-16T02:13:55.443Z,99168.38
2022-08-16T02:17:01.645Z,99164.38
2022-08-16T02:20:11.398Z,99163.63
2022-08-16T02:23:17.249Z,99169.34
2022-08-16T02:26:21.315Z,99161.66
2022-08-16T02:29:24.947Z,99163.28
2022-08-16T02:32:49.349Z,99167.84
2022-08-16T02:35:59.889Z,99167.06
2022-08-16T02:39:04.086Z,99173.25
2022-08-16T02:42:07.337Z,99171.69
2022-08-16T02:45:11.026Z,99165.91
2022-08-16T02:48:29.667Z,99164.31
2022-08-16T02:51:38.134Z,99175.88
2022-08-16T02:54:44.454Z,99177.19
2022-08-16T02:57:54.039Z,99171.56
2022-08-16T03:01:00.033Z,99172.47
2022-08-16T03:04:29.668Z,99168.41
2022-08-16T03:07:28.571Z,99166.72
2022-08-16T03:10:33.710Z,99163.56
2022-08-16T03:13:40.164Z,99172.63
2022-08-16T03:16:59.935Z,99170.16
2022-08-16T03:20:07.430Z,99171.63
2022-08-16T03:23:18.857Z,99175.78
2022-08-16T03:26:21.892Z,99177.31
2022-08-16T03:29:34.634Z,99179.00
2022-08-16T03:32:38.013Z,99188.09
2022-08-16T03:35:42.052Z,99191.56
2022-08-16T03:38:48.617Z,99191.56
2022-08-16T03:41:59.635Z,99197.38
2022-08-16T03:45:09.288Z,99209.97
2022-08-16T03:48:15.173Z,99215.97
2022-08-16T03:51:25.360Z,99226.31
2022-08-16T03:54:35.902Z,99227.12
2022-08-16T03:57:42.815Z,99225.28
2022-08-16T04:00:59.003Z,99217.63
2022-08-16T04:04:03.080Z,99219.50
2022-08-16T04:07:07.759Z,99219.06
2022-08-16T04:10:36.704Z,99226.50
2022-08-16T04:14:00.812Z,99228.56
2022-08-16T04:17:01.732Z,99236.84
2022-08-16T04:20:23.672Z,99232.91
2022-08-16T04:23:32.654Z,99239.50
2022-08-16T04:26:36.307Z,99240.50
2022-08-16T04:29:46.161Z,99231.84
2022-08-16T04:32:51.271Z,99237.34
2022-08-16T04:35:59.593Z,99232.84
2022-08-16T04:39:03.011Z,99228.12
2022-08-16T04:42:10.920Z,99233.06
2022-08-16T04:45:17.749Z,99221.94
2022-08-16T04:48:28.492Z,99226.69
2022-08-16T04:51:36.350Z,99224.72
2022-08-16T04:54:43.204Z,99224.22
2022-08-16T04:57:52.589Z,99230.41
2022-08-16T05:01:01.821Z,99232.91
2022-08-16T05:04:05.463Z,99239.94
2022-08-16T05:07:23.345Z,99234.59
2022-08-16T05:10:29.904Z,99238.37
2022-08-16T05:13:40.405Z,99239.91
2022-08-16T05:16:46.713Z,99241.31
2022-08-16T05:19:57.722Z,99250.62
2022-08-16T05:23:03.415Z,99265.88
2022-08-16T05:26:19.982Z,99260.75
2022-08-16T05:29:24.935Z,99254.97
2022-08-16T05:32:48.108Z,99260.66
2022-08-16T05:35:55.147Z,99263.72
2022-08-16T05:38:59.879Z,99260.03
2022-08-16T05:42:03.165Z,99257.50
2022-08-16T05:45:08.743Z,99254.37
2022-08-16T05:48:12.145Z,99259.81
2022-08-16T05:51:37.517Z,99245.19
2022-08-16T05:54:47.913Z,99256.25
2022-08-16T05:58:01.666Z,99250.94
2022-08-16T06:01:06.532Z,99252.94
2022-08-16T06:04:35.673Z,99262.56
2022-08-16T06:07:37.437Z,99265.62
2022-08-16T06:11:02.788Z,99263.63
2022-08-16T06:14:09.290Z,99258.03
2022-08-16T06:17:15.274Z,99250.38
2022-08-16T06:20:25.460Z,99259.00
2022-08-16T06:23:38.501Z,99252.13
2022-08-16T06:26:57.514Z,99257.28
2022-08-16T06:30:01.841Z,99267.53
2022-08-16T06:33:07.303Z,99267.19
2022-08-16T06:36:17.060Z,99269.22
2022-08-16T06:39:20.420Z,99272.03
2022-08-16T06:42:24.537Z,99280.00
2022-08-16T06:45:43.496Z,99281.03
2022-08-16T06:48:51.525Z,99279.72
2022-08-16T06:51:55.358Z,99276.00
2022-08-16T06:55:13.510Z,99275.19
2022-08-16T06:58:22.330Z,99266.91
2022-08-16T07:01:43.092Z,99272.78
2022-08-16T07:04:48.081Z,99270.78
2022-08-16T07:07:56.956Z,99274.19
2022-08-16T07:11:01.553Z,99277.44
2022-08-16T07:14:25.066Z,99279.69
2022-08-16T07:17:30.661Z,99286.34
2022-08-16T07:20:47.243Z,99284.75
2022-08-16T07:23:50.969Z,99282.03
2022-08-16T07:27:02.316Z,99278.75
2022-08-16T07:30:39.763Z,99280.38
2022-08-16T07:33:53.751Z,99273.78
2022-08-16T07:37:04.831Z,99278.47
2022-08-16T07:40:36.935Z,99283.44
2022-08-16T07:43:48.162Z,99283.16
2022-08-16T07:46:55.497Z,99285.37
2022-08-16T07:50:05.483Z,99288.28
2022-08-16T07:53:12.129Z,99293.13
2022-08-16T07:56:15.526Z,99284.56
2022-08-16T07:59:24.724Z,99283.00
2022-08-16T08:02:29.198Z,99279.03
2022-08-16T08:05:35.955Z,99282.03
2022-08-16T08:08:59.567Z,99275.16
2022-08-16T08:12:05.505Z,99282.81
2022-08-16T08:15:11.167Z,99276.53
2022-08-16T08:18:29.932Z,99279.28
2022-08-16T08:21:58.493Z,99276.28
2022-08-16T08:25:03.734Z,99286.66
2022-08-16T08:28:11.064Z,99292.66
2022-08-16T08:31:17.102Z,99290.28
2022-08-16T08:34:23.015Z,99300.34
2022-08-16T08:37:27.078Z,99302.38
2022-08-16T08:40:57.040Z,99303.12
2022-08-16T08:44:28.866Z,99293.84
2022-08-16T08:47:30.809Z,99304.91
2022-08-16T08:50:37.206Z,99305.84
2022-08-16T08:53:42.262Z,99306.59
2022-08-16T08:56:46.547Z,99305.31
2022-08-16T08:59:55.247Z,99305.72
2022-08-16T09:02:59.857Z,99308.84
2022-08-16T09:06:09.644Z,99306.03
2022-08-16T09:09:18.506Z,99306.87
2022-08-16T09:12:36.505Z,99297.13
2022-08-16T09:15:41.061Z,99296.91
2022-08-16T09:18:49.520Z,99302.06
2022-08-16T09:22:00.835Z,99299.41
2022-08-16T09:25:10.161Z,99295.31
2022-08-16T09:29:13.328Z,99298.09
2022-08-16T09:31:41.030Z,99293.63
2022-08-16T09:34:46.878Z,99289.41
2022-08-16T09:38:00.591Z,99285.47
2022-08-16T09:41:24.164Z,99288.09
2022-08-16T09:45:12.880Z,99284.66
2022-08-16T09:47:56.617Z,99286.47
2022-08-16T09:51:01.754Z,99286.91
2022-08-16T09:54:06.312Z,99285.50
2022-08-16T09:57:12.789Z,99285.16
2022-08-16T10:00:44.810Z,99282.47
2022-08-16T10:04:02.640Z,99283.00
2022-08-16T10:07:12.275Z,99278.00
2022-08-16T10:10:30.468Z,99271.47
2022-08-16T10:13:36.461Z,99271.25
2022-08-16T10:16:42.989Z,99267.00
2022-08-16T10:19:53.086Z,99255.28
2022-08-16T10:23:03.684Z,99263.75
2022-08-16T10:27:19.701Z,99252.69
2022-08-16T10:30:01.271Z,99272.88
2022-08-16T10:32:56.030Z,99267.59
2022-08-16T10:36:08.118Z,99258.16
2022-08-16T10:39:11.519Z,99261.63
2022-08-16T10:42:14.647Z,99257.91
2022-08-16T10:45:18.446Z,99259.81
2022-08-16T10:48:28.051Z,99261.41
2022-08-16T10:51:34.316Z,99262.31
2022-08-16T10:54:59.379Z,99255.28
2022-08-16T10:58:11.450Z,99251.94
2022-08-16T11:01:39.790Z,99249.97
2022-08-16T11:08:07.049Z,99242.31
2022-08-16T11:11:19.163Z,99245.28
2022-08-16T11:14:24.500Z,99240.53
2022-08-16T11:17:27.462Z,99239.66
2022-08-16T11:20:42.248Z,99241.66
2022-08-16T11:23:56.938Z,99236.34
2022-08-16T11:30:28.468Z,99241.69
2022-08-16T11:33:57.350Z,99244.03
2022-08-16T11:37:01.433Z,99231.50
2022-08-16T11:40:08.100Z,99240.69
2022-08-16T11:43:16.885Z,99237.78
2022-08-16T11:46:43.125Z,99238.75
2022-08-16T11:49:43.453Z,99231.53
2022-08-16T11:52:46.900Z,99242.88
2022-08-16T11:55:55.061Z,99232.56
2022-08-16T11:58:58.305Z,99244.22
2022-08-16T12:02:11.598Z,99247.16
2022-08-16T12:05:27.662Z,99251.06
2022-08-16T12:08:31.676Z,99243.28
2022-08-16T12:11:35.239Z,99246.50
2022-08-16T12:14:38.072Z,99254.41
2022-08-16T12:17:43.449Z,99241.38
2022-08-16T12:20:47.803Z,99242.62
2022-08-16T12:23:58.732Z,99239.00
2022-08-16T12:27:03.068Z,99234.03
2022-08-16T12:30:21.944Z,99233.69
2022-08-16T12:33:32.334Z,99242.59
2022-08-16T12:36:46.758Z,99239.78
2022-08-16T12:39:52.922Z,99239.72
2022-08-16T12:43:00.740Z,99237.59
2022-08-16T12:46:05.227Z,99236.16
2022-08-16T12:49:12.543Z,99230.16
2022-08-16T12:52:33.715Z,99234.31
2022-08-16T12:55:42.034Z,99228.91
2022-08-16T12:58:50.440Z,99230.31
2022-08-16T13:01:58.223Z,99223.97
2022-08-16T13:05:01.470Z,99218.56
2022-08-16T13:08:20.262Z,99218.06
2022-08-16T13:11:32.529Z,99209.22
2022-08-16T13:14:41.091Z,99205.69
2022-08-16T13:17:44.625Z,99207.06
2022-08-16T13:20:54.524Z,99206.78
2022-08-16T13:23:58.625Z,99205.97
2022-08-16T13:27:01.758Z,99198.59
2022-08-16T13:30:11.149Z,99209.13
2022-08-16T13:33:30.866Z,99216.97
2022-08-16T13:36:48.410Z,99212.97
2022-08-16T13:39:52.584Z,99209.00
2022-08-16T13:42:56.075Z,99210.50
2022-08-16T13:46:02.819Z,99207.06
2022-08-16T13:49:07.487Z,99214.28
2022-08-16T13:52:11.156Z,99211.91
2022-08-16T13:55:18.035Z,99204.31
2022-08-16T13:58:36.740Z,99199.34
2022-08-16T14:01:45.150Z,99200.94
2022-08-16T14:04:48.224Z,99193.37
2022-08-16T14:08:09.458Z,99191.81
2022-08-16T14:11:15.812Z,99193.50
2022-08-16T14:14:18.730Z,99188.03
2022-08-16T14:17:29.066Z,99191.53
2022-08-16T14:20:48.288Z,99194.13
2022-08-16T14:23:52.394Z,99189.03
2022-08-16T14:26:55.267Z,99178.69
2022-08-16T14:30:02.323Z,99184.59
2022-08-16T14:33:07.418Z,99183.06
2022-08-16T14:36:10.972Z,99190.44
2022-08-16T14:39:24.372Z,99185.09
2022-08-16T14:42:32.809Z,99195.81
2022-08-16T14:45:41.757Z,99192.97
2022-08-16T14:48:47.366Z,99197.59
2022-08-16T14:51:50.414Z,99193.28
2022-08-16T14:54:55.781Z,99191.59
2022-08-16T14:58:01.740Z,99200.84
2022-08-16T15:01:09.959Z,99195.50
2022-08-16T15:04:37.931Z,99185.03
2022-08-16T15:07:40.267Z,99194.56
2022-08-16T15:10:46.601Z,99194.88
2022-08-16T15:13:52.398Z,99203.16
2022-08-16T15:16:56.563Z,99209.88
2022-08-16T15:20:14.157Z,99215.50
2022-08-16T15:23:20.750Z,99223.25
2022-08-16T15:26:44.820Z,99232.03
2022-08-16T15:29:52.261Z,99231.91
2022-08-16T15:33:07.817Z,99206.53
2022-08-16T15:36:18.278Z,99226.13
2022-08-16T15:39:30.417Z,99233.75
2022-08-16T15:42:54.029Z,99247.25
2022-08-16T15:56:06.211Z,99239.47
2022-08-16T15:59:10.546Z,99239.84
2022-08-16T16:02:13.195Z,99246.09
2022-08-16T16:05:27.298Z,99244.50
2022-08-16T16:52:06.754Z,99260.94
2022-08-16T16:55:12.665Z,99249.00
2022-08-16T16:58:36.742Z,99251.63
2022-08-16T17:02:41.422Z,99249.78
2022-08-16T17:05:32.945Z,99255.56
2022-08-16T17:08:36.150Z,99259.31
2022-08-16T17:11:46.027Z,99270.50
2022-08-16T17:14:58.228Z,99268.94
2022-08-16T17:18:04.241Z,99271.75
2022-08-16T17:21:36.997Z,99286.19
2022-08-16T17:24:50.889Z,99291.06
2022-08-16T17:27:59.289Z,99286.28
2022-08-16T17:31:02.871Z,99294.91
2022-08-16T17:34:30.343Z,99295.88
2022-08-16T17:37:48.742Z,99304.59
2022-08-16T17:40:59.006Z,99309.41
2022-08-16T17:44:05.589Z,99309.72
2022-08-16T17:51:36.925Z,99303.59
2022-08-16T17:54:45.984Z,99315.75
2022-08-16T17:57:48.576Z,99313.81
2022-08-16T18:00:56.053Z,99313.16
2022-08-16T18:04:08.159Z,99329.19
2022-08-16T18:07:12.113Z,99325.00
2022-08-16T18:10:31.270Z,99327.25
